Time;durP1;ratioP1;P1;durP2;ratioP2;P2;SDS_P1;SDS_P2;PMS_P1;PMS_P2;Temp;Humidity;BMP_temperature;BMP_pressure;BME280_temperature;BME280_humidity;BME280_pressure;Samples;Min_cycle;Max_cycle;Signal;HPM_P1;HPM_P2
2023/03/31 00:01:24;;;;;;;;;;;10.00;99.90;;;;;;5108742;27;19924;-77
2023/03/31 00:03:49;;;;;;;;;;;9.90;99.90;;;;;;5071561;28;20050;-77
2023/03/31 00:06:18;;;;;;;;;;;9.90;99.90;;;;;;5081156;27;19935;-77
2023/03/31 00:08:44;;;;;;;;;;;9.90;99.90;;;;;;5093065;28;20388;-77
2023/03/31 00:11:10;;;;;;;;;;;9.80;99.90;;;;;;5086604;27;19962;-77
2023/03/31 00:13:36;;;;;;;;;;;9.80;99.90;;;;;;5056351;27;19935;-77
2023/03/31 00:16:07;;;;;;;;;;;9.80;99.90;;;;;;5081531;27;20400;-77
2023/03/31 00:18:33;;;;;;;;;;;9.70;99.90;;;;;;5082309;28;19939;-77
2023/03/31 00:21:05;;;;;;;;;;;9.70;99.90;;;;;;5115786;27;19924;-77
2023/03/31 00:23:31;;;;;;;;;;;9.60;99.90;;;;;;5093506;27;19923;-77
2023/03/31 00:25:56;;;;;;;;;;;9.60;99.90;;;;;;5070339;27;20321;-77
2023/03/31 00:28:22;;;;;;;;;;;9.60;99.90;;;;;;5093143;27;19928;-77
2023/03/31 00:30:48;;;;;;;;;;;9.50;99.90;;;;;;5090815;28;19924;-77
2023/03/31 00:33:14;;;;;;;;;;;9.50;99.90;;;;;;5111030;27;20439;-77
2023/03/31 00:35:39;;;;;;;;;;;9.50;99.90;;;;;;5074905;27;19967;-77
2023/03/31 00:38:07;;;;;;;;;;;9.50;99.90;;;;;;5073127;28;19950;-77
2023/03/31 00:40:34;;;;;;;;;;;9.50;99.90;;;;;;5074132;27;19939;-77
2023/03/31 00:42:59;;;;;;;;;;;9.40;99.90;;;;;;5078105;27;19927;-77
2023/03/31 00:45:29;;;;;;;;;;;9.40;99.90;;;;;;5122322;27;19935;-77
2023/03/31 00:48:04;;;;;;;;;;;9.40;99.90;;;;;;5067664;28;19924;-77
2023/03/31 00:50:32;;;;;;;;;;;9.30;99.90;;;;;;5091257;27;19938;-77
2023/03/31 00:53:00;;;;;;;;;;;9.30;99.90;;;;;;5079870;27;19925;-77
2023/03/31 00:55:35;;;;;;;;;;;9.30;99.90;;;;;;5081572;28;19947;-77
2023/03/31 00:58:03;;;;;;;;;;;9.20;99.90;;;;;;5083291;28;19924;-77
2023/03/31 01:00:29;;;;;;;;;;;9.30;99.90;;;;;;5090815;27;19980;-77
2023/03/31 01:02:57;;;;;;;;;;;9.30;99.90;;;;;;5102151;28;19928;-77
2023/03/31 01:05:43;;;;;;;;;;;9.20;99.90;;;;;;5086884;28;20001;-77
2023/03/31 01:08:09;;;;;;;;;;;9.30;99.90;;;;;;5084604;28;19949;-78
2023/03/31 01:10:40;;;;;;;;;;;9.30;99.90;;;;;;5086218;28;19927;-77
2023/03/31 01:13:10;;;;;;;;;;;9.30;99.90;;;;;;5076670;28;19935;-77
2023/03/31 01:15:36;;;;;;;;;;;9.30;99.90;;;;;;5085627;28;19928;-77
2023/03/31 01:18:03;;;;;;;;;;;9.30;99.90;;;;;;5086573;28;19931;-77
2023/03/31 01:20:48;;;;;;;;;;;9.20;99.90;;;;;;5120127;28;20336;-77
2023/03/31 01:23:25;;;;;;;;;;;9.30;99.90;;;;;;5101720;28;20387;-77
2023/03/31 01:26:01;;;;;;;;;;;9.30;99.90;;;;;;5086460;28;19954;-77
2023/03/31 01:28:32;;;;;;;;;;;9.30;99.90;;;;;;5101640;28;19928;-77
2023/03/31 01:31:16;;;;;;;;;;;9.30;99.90;;;;;;5074161;28;19977;-77
2023/03/31 01:33:57;;;;;;;;;;;9.40;99.90;;;;;;5117816;28;19928;-77
2023/03/31 01:36:49;;;;;;;;;;;9.30;99.90;;;;;;5114235;27;19970;-77
2023/03/31 01:39:28;;;;;;;;;;;9.30;99.90;;;;;;5091970;27;19924;-77
2023/03/31 01:42:06;;;;;;;;;;;9.30;99.90;;;;;;5114188;27;19925;-77
2023/03/31 01:44:48;;;;;;;;;;;9.40;99.90;;;;;;5107778;28;19931;-77
2023/03/31 01:47:21;;;;;;;;;;;9.40;99.90;;;;;;5101936;27;19936;-77
2023/03/31 01:49:56;;;;;;;;;;;9.40;99.90;;;;;;5096147;28;20293;-77
2023/03/31 01:52:42;;;;;;;;;;;9.40;99.90;;;;;;5100685;27;20019;-76
2023/03/31 01:55:11;;;;;;;;;;;9.40;99.90;;;;;;5094188;27;20006;-77
2023/03/31 01:58:00;;;;;;;;;;;9.40;99.90;;;;;;5076999;28;20610;-77
2023/03/31 02:00:32;;;;;;;;;;;9.50;99.90;;;;;;5075150;28;19947;-77
2023/03/31 02:02:58;;;;;;;;;;;9.50;99.90;;;;;;5074637;27;19958;-77
2023/03/31 02:05:25;;;;;;;;;;;9.50;99.90;;;;;;5073823;28;19966;-77
2023/03/31 02:07:53;;;;;;;;;;;9.50;99.90;;;;;;5078153;27;19991;-77
2023/03/31 02:10:20;;;;;;;;;;;9.50;99.90;;;;;;5077599;28;19923;-77
2023/03/31 02:12:46;;;;;;;;;;;9.50;99.90;;;;;;5089975;28;19931;-77
2023/03/31 02:15:20;;;;;;;;;;;9.50;99.90;;;;;;5082324;27;19927;-77
2023/03/31 02:17:47;;;;;;;;;;;9.50;99.90;;;;;;5101995;27;20348;-77
2023/03/31 02:20:14;;;;;;;;;;;9.50;99.90;;;;;;5072853;27;20022;-77
2023/03/31 02:22:42;;;;;;;;;;;9.60;99.90;;;;;;5068379;28;20406;-77
2023/03/31 02:25:10;;;;;;;;;;;9.50;99.90;;;;;;5105024;27;20028;-77
2023/03/31 02:27:41;;;;;;;;;;;9.50;99.90;;;;;;5105942;27;19935;-77
2023/03/31 02:30:07;;;;;;;;;;;9.50;99.90;;;;;;5099482;28;19930;-77
2023/03/31 02:32:35;;;;;;;;;;;9.60;99.90;;;;;;5064877;28;20362;-77
2023/03/31 02:35:01;;;;;;;;;;;9.60;99.90;;;;;;5081840;27;19932;-77
2023/03/31 02:37:27;;;;;;;;;;;9.60;99.90;;;;;;5067797;27;19938;-78
2023/03/31 02:39:54;;;;;;;;;;;9.70;99.90;;;;;;5090905;28;19924;-77
2023/03/31 02:42:20;;;;;;;;;;;9.70;99.90;;;;;;5080753;27;19973;-77
2023/03/31 02:44:45;;;;;;;;;;;9.70;99.90;;;;;;5080432;27;19931;-77
2023/03/31 02:47:13;;;;;;;;;;;9.70;99.90;;;;;;5074278;27;19923;-77
2023/03/31 02:49:41;;;;;;;;;;;9.70;99.90;;;;;;5079692;27;19928;-77
2023/03/31 02:52:17;;;;;;;;;;;9.80;99.90;;;;;;5069574;28;19935;-77
2023/03/31 02:54:49;;;;;;;;;;;9.80;99.90;;;;;;5099962;28;19924;-77
2023/03/31 02:57:31;;;;;;;;;;;9.80;99.90;;;;;;5068922;27;19928;-77
2023/03/31 03:00:07;;;;;;;;;;;9.80;99.90;;;;;;5096249;27;20004;-77
2023/03/31 03:02:51;;;;;;;;;;;9.80;99.90;;;;;;5074886;28;19924;-77
2023/03/31 03:05:44;;;;;;;;;;;9.90;99.90;;;;;;5104276;28;19931;-78
2023/03/31 03:08:10;;;;;;;;;;;9.90;99.90;;;;;;5089350;28;19949;-77
2023/03/31 03:10:45;;;;;;;;;;;9.90;99.90;;;;;;5084187;28;19932;-77
2023/03/31 03:13:17;;;;;;;;;;;9.90;99.90;;;;;;5100674;28;20383;-77
2023/03/31 03:15:46;;;;;;;;;;;9.90;99.90;;;;;;5072400;27;19924;-78
2023/03/31 03:18:11;;;;;;;;;;;10.00;99.90;;;;;;5106058;28;19923;-78
2023/03/31 03:20:38;;;;;;;;;;;10.00;99.90;;;;;;5093205;28;19998;-78
2023/03/31 03:23:03;;;;;;;;;;;9.90;99.90;;;;;;5072076;28;19924;-78
2023/03/31 03:25:29;;;;;;;;;;;9.90;99.90;;;;;;5064120;28;20413;-78
2023/03/31 03:27:55;;;;;;;;;;;9.90;99.90;;;;;;5122244;27;19950;-78
2023/03/31 03:30:21;;;;;;;;;;;9.90;99.90;;;;;;5099456;28;19946;-78
2023/03/31 03:32:46;;;;;;;;;;;9.90;99.90;;;;;;5078770;28;19932;-77
2023/03/31 03:35:12;;;;;;;;;;;9.90;99.90;;;;;;5091566;28;19923;-77
2023/03/31 03:37:37;;;;;;;;;;;9.90;99.90;;;;;;5062597;28;19928;-76
2023/03/31 03:40:07;;;;;;;;;;;9.90;99.90;;;;;;5117289;28;19951;-75
2023/03/31 03:42:33;;;;;;;;;;;9.80;99.90;;;;;;5067303;28;19936;-77
2023/03/31 03:44:58;;;;;;;;;;;9.80;99.90;;;;;;5121617;28;19932;-78
2023/03/31 03:47:24;;;;;;;;;;;9.80;99.90;;;;;;5059387;28;19931;-78
2023/03/31 03:49:49;;;;;;;;;;;9.80;99.90;;;;;;5060134;28;19946;-78
2023/03/31 03:52:15;;;;;;;;;;;9.80;99.90;;;;;;5068328;28;19928;-78
2023/03/31 03:54:41;;;;;;;;;;;9.80;99.90;;;;;;5070166;28;20016;-78
2023/03/31 03:57:06;;;;;;;;;;;9.80;99.90;;;;;;5065996;28;19928;-78
2023/03/31 03:59:32;;;;;;;;;;;9.80;99.90;;;;;;5075444;28;19924;-78
2023/03/31 04:01:57;;;;;;;;;;;9.80;99.90;;;;;;5065004;28;19924;-78
2023/03/31 04:04:23;;;;;;;;;;;9.80;99.90;;;;;;5061017;28;19923;-78
2023/03/31 04:06:49;;;;;;;;;;;9.80;99.90;;;;;;5065623;28;19924;-78
2023/03/31 04:09:15;;;;;;;;;;;9.80;99.90;;;;;;5074415;28;20274;-79
2023/03/31 04:11:40;;;;;;;;;;;9.80;99.90;;;;;;5059074;28;19974;-79
2023/03/31 04:14:06;;;;;;;;;;;9.80;99.90;;;;;;5073340;28;19942;-79
2023/03/31 04:16:33;;;;;;;;;;;9.80;99.90;;;;;;5099886;28;19949;-79
2023/03/31 04:19:02;;;;;;;;;;;9.80;99.90;;;;;;5067057;28;20374;-79
2023/03/31 04:21:29;;;;;;;;;;;9.80;99.90;;;;;;5074857;28;19931;-80
2023/03/31 04:24:00;;;;;;;;;;;9.90;99.90;;;;;;5070358;28;19954;-80
2023/03/31 04:26:29;;;;;;;;;;;9.90;99.90;;;;;;5068870;28;19932;-79
2023/03/31 04:28:59;;;;;;;;;;;9.90;99.90;;;;;;5105708;28;19943;-79
2023/03/31 04:31:25;;;;;;;;;;;9.90;99.90;;;;;;5084939;28;19924;-79
2023/03/31 04:33:53;;;;;;;;;;;9.90;99.90;;;;;;5075088;28;19928;-79
2023/03/31 04:36:19;;;;;;;;;;;9.90;99.90;;;;;;5086159;28;19947;-79
2023/03/31 04:38:46;;;;;;;;;;;9.90;99.90;;;;;;5107208;28;19924;-79
2023/03/31 04:41:15;;;;;;;;;;;9.90;99.90;;;;;;5075705;27;19924;-80
2023/03/31 04:43:41;;;;;;;;;;;9.90;99.90;;;;;;5070236;28;19928;-80
2023/03/31 04:46:06;;;;;;;;;;;9.90;99.90;;;;;;5097592;28;20440;-80
2023/03/31 04:48:32;;;;;;;;;;;9.90;99.90;;;;;;5085311;27;19963;-80
2023/03/31 04:50:57;;;;;;;;;;;9.90;99.90;;;;;;5108028;28;19928;-80
2023/03/31 04:53:23;;;;;;;;;;;9.90;99.90;;;;;;5067408;28;19977;-80
2023/03/31 04:55:49;;;;;;;;;;;9.90;99.90;;;;;;5073916;27;19927;-80
2023/03/31 04:58:14;;;;;;;;;;;9.90;99.90;;;;;;5085026;27;19923;-80
2023/03/31 05:00:40;;;;;;;;;;;9.80;99.90;;;;;;5068031;27;19959;-80
2023/03/31 05:03:06;;;;;;;;;;;9.80;99.90;;;;;;5073600;28;19932;-80
2023/03/31 05:05:32;;;;;;;;;;;9.80;99.90;;;;;;5128494;27;20014;-80
2023/03/31 05:07:57;;;;;;;;;;;9.80;99.90;;;;;;5103343;28;19949;-80
2023/03/31 05:10:23;;;;;;;;;;;9.80;99.90;;;;;;5089146;28;19994;-79
2023/03/31 05:12:49;;;;;;;;;;;9.80;99.90;;;;;;5091435;28;19924;-79
2023/03/31 05:15:15;;;;;;;;;;;9.80;99.90;;;;;;5133330;27;19946;-79
2023/03/31 05:17:40;;;;;;;;;;;9.80;99.90;;;;;;5113783;28;19928;-78
2023/03/31 05:20:07;;;;;;;;;;;9.80;99.90;;;;;;5080273;28;19987;-78
2023/03/31 05:22:36;;;;;;;;;;;9.80;99.90;;;;;;5077957;28;19928;-78
2023/03/31 05:25:02;;;;;;;;;;;9.80;99.90;;;;;;5066360;27;19923;-78
2023/03/31 05:27:28;;;;;;;;;;;9.70;99.90;;;;;;5093574;28;19966;-78
2023/03/31 05:29:54;;;;;;;;;;;9.80;99.90;;;;;;5087293;28;19928;-77
2023/03/31 05:32:20;;;;;;;;;;;9.80;99.90;;;;;;5113529;28;19928;-78
2023/03/31 05:34:45;;;;;;;;;;;9.80;99.90;;;;;;5078596;28;19971;-78
2023/03/31 05:37:11;;;;;;;;;;;9.80;99.90;;;;;;5084746;28;19924;-77
2023/03/31 05:39:36;;;;;;;;;;;9.80;99.90;;;;;;5077551;27;19923;-77
2023/03/31 05:42:04;;;;;;;;;;;9.80;99.90;;;;;;5082144;27;19927;-77
2023/03/31 05:44:30;;;;;;;;;;;9.80;99.90;;;;;;5069456;27;19939;-76
2023/03/31 05:46:55;;;;;;;;;;;9.80;99.90;;;;;;5077588;28;19928;-77
2023/03/31 05:49:21;;;;;;;;;;;9.80;99.90;;;;;;5121349;27;19924;-76
2023/03/31 05:51:47;;;;;;;;;;;9.80;99.90;;;;;;5094929;28;20397;-76
2023/03/31 05:54:12;;;;;;;;;;;9.80;99.90;;;;;;5074177;27;19942;-77
2023/03/31 05:56:38;;;;;;;;;;;9.80;99.90;;;;;;5122943;27;19938;-77
2023/03/31 05:59:04;;;;;;;;;;;9.80;99.90;;;;;;5121128;27;20301;-77
2023/03/31 06:01:29;;;;;;;;;;;9.70;99.90;;;;;;5087500;27;19959;-76
2023/03/31 06:03:55;;;;;;;;;;;9.70;99.90;;;;;;5090020;27;19981;-77
2023/03/31 06:06:21;;;;;;;;;;;9.70;99.90;;;;;;5070911;27;20515;-77
2023/03/31 06:08:47;;;;;;;;;;;9.70;99.90;;;;;;5107112;27;20598;-77
2023/03/31 06:11:15;;;;;;;;;;;9.80;99.90;;;;;;5115545;27;19932;-78
2023/03/31 06:13:40;;;;;;;;;;;9.70;99.90;;;;;;5068545;28;20004;-77
2023/03/31 06:16:06;;;;;;;;;;;9.80;99.90;;;;;;5084030;27;19989;-78
2023/03/31 06:18:33;;;;;;;;;;;9.70;99.90;;;;;;5078544;27;19938;-77
2023/03/31 06:20:59;;;;;;;;;;;9.80;99.90;;;;;;5064161;28;20284;-78
2023/03/31 06:23:25;;;;;;;;;;;9.70;99.90;;;;;;5116060;27;19931;-76
2023/03/31 06:25:51;;;;;;;;;;;9.70;99.90;;;;;;5112034;27;19928;-77
2023/03/31 06:28:16;;;;;;;;;;;9.70;99.90;;;;;;5117989;27;21875;-76
2023/03/31 06:30:42;;;;;;;;;;;9.70;99.90;;;;;;5073325;28;20010;-76
2023/03/31 06:33:08;;;;;;;;;;;9.80;99.90;;;;;;5116201;27;19928;-76
2023/03/31 06:35:36;;;;;;;;;;;9.80;99.90;;;;;;5080200;28;19983;-77
2023/03/31 06:38:02;;;;;;;;;;;9.70;99.90;;;;;;5070912;28;19924;-77
2023/03/31 06:40:28;;;;;;;;;;;9.70;99.90;;;;;;5061706;27;19934;-78
2023/03/31 06:42:54;;;;;;;;;;;9.70;99.90;;;;;;5068938;27;19970;-78
2023/03/31 06:45:19;;;;;;;;;;;9.80;99.90;;;;;;5088215;28;19931;-79
2023/03/31 06:47:45;;;;;;;;;;;9.80;99.90;;;;;;5067353;27;19927;-78
2023/03/31 06:50:11;;;;;;;;;;;9.80;99.90;;;;;;5090461;28;19928;-79
2023/03/31 06:52:36;;;;;;;;;;;9.90;99.90;;;;;;5103901;27;19923;-78
2023/03/31 06:55:02;;;;;;;;;;;9.90;99.90;;;;;;5076371;28;20019;-78
2023/03/31 06:57:28;;;;;;;;;;;9.90;99.90;;;;;;5056029;27;20375;-78
2023/03/31 06:59:54;;;;;;;;;;;9.90;99.90;;;;;;5080422;28;19925;-78
2023/03/31 07:02:19;;;;;;;;;;;10.00;99.90;;;;;;5064088;28;20018;-78
2023/03/31 07:04:45;;;;;;;;;;;10.00;99.90;;;;;;5095960;27;19931;-77
2023/03/31 07:07:11;;;;;;;;;;;10.00;99.90;;;;;;5112029;27;20009;-77
2023/03/31 07:09:36;;;;;;;;;;;9.90;99.90;;;;;;5118659;27;19928;-77
2023/03/31 07:12:04;;;;;;;;;;;10.00;99.90;;;;;;5109404;28;20291;-77
2023/03/31 07:14:30;;;;;;;;;;;10.00;99.90;;;;;;5083661;28;20360;-77
2023/03/31 07:16:56;;;;;;;;;;;10.00;99.90;;;;;;5093177;28;19932;-78
2023/03/31 07:19:21;;;;;;;;;;;10.00;99.90;;;;;;5112939;27;19928;-78
2023/03/31 07:21:47;;;;;;;;;;;10.10;99.90;;;;;;5081377;28;19970;-78
2023/03/31 07:24:13;;;;;;;;;;;10.10;99.90;;;;;;5118161;27;19928;-78
2023/03/31 07:26:38;;;;;;;;;;;10.10;99.90;;;;;;5064969;28;19995;-79
2023/03/31 07:29:04;;;;;;;;;;;10.20;99.90;;;;;;5114246;27;19974;-79
2023/03/31 07:31:30;;;;;;;;;;;10.20;99.90;;;;;;5090239;28;19932;-80
2023/03/31 07:33:55;;;;;;;;;;;10.20;99.90;;;;;;5063246;28;19928;-80
2023/03/31 07:36:21;;;;;;;;;;;10.20;99.90;;;;;;5122559;28;19924;-80
2023/03/31 07:38:48;;;;;;;;;;;10.20;99.90;;;;;;5078009;28;20040;-80
2023/03/31 07:41:18;;;;;;;;;;;10.30;99.90;;;;;;5070262;28;19939;-80
2023/03/31 07:43:44;;;;;;;;;;;10.30;99.90;;;;;;5084987;28;19932;-80
2023/03/31 07:46:16;;;;;;;;;;;10.30;99.90;;;;;;5077424;28;20545;-80
2023/03/31 07:48:42;;;;;;;;;;;10.30;99.90;;;;;;5093478;28;19943;-80
2023/03/31 07:51:08;;;;;;;;;;;10.30;99.90;;;;;;5095881;28;19935;-80
2023/03/31 07:53:34;;;;;;;;;;;10.30;99.90;;;;;;5074223;28;19932;-80
2023/03/31 07:56:00;;;;;;;;;;;10.40;99.90;;;;;;5091426;28;19963;-79
2023/03/31 07:58:26;;;;;;;;;;;10.40;99.90;;;;;;5092428;28;20014;-80
2023/03/31 08:00:51;;;;;;;;;;;10.40;99.90;;;;;;5082914;28;19924;-80
2023/03/31 08:03:17;;;;;;;;;;;10.50;99.90;;;;;;5066960;28;19924;-81
2023/03/31 08:05:42;;;;;;;;;;;10.50;99.90;;;;;;5088410;28;20015;-81
2023/03/31 08:08:08;;;;;;;;;;;10.60;99.90;;;;;;5096843;28;19931;-80
2023/03/31 08:10:34;;;;;;;;;;;10.60;99.90;;;;;;5096225;28;19946;-80
2023/03/31 08:12:59;;;;;;;;;;;10.60;99.90;;;;;;5079385;28;19947;-81
2023/03/31 08:15:25;;;;;;;;;;;10.60;99.90;;;;;;5072543;28;20015;-80
2023/03/31 08:17:50;;;;;;;;;;;10.70;99.90;;;;;;5095191;28;20375;-81
2023/03/31 08:20:16;;;;;;;;;;;10.70;99.90;;;;;;5091438;28;19925;-80
2023/03/31 08:22:42;;;;;;;;;;;10.80;99.90;;;;;;5072335;28;19924;-80
2023/03/31 08:25:08;;;;;;;;;;;10.80;99.90;;;;;;5121398;27;19931;-80
2023/03/31 08:27:34;;;;;;;;;;;10.80;99.90;;;;;;5110514;28;19928;-79
2023/03/31 08:30:03;;;;;;;;;;;10.90;99.90;;;;;;5072767;28;19983;-80
2023/03/31 08:32:29;;;;;;;;;;;10.90;99.90;;;;;;5093058;28;19928;-79
2023/03/31 08:34:55;;;;;;;;;;;10.90;99.90;;;;;;5094856;28;19924;-79
2023/03/31 08:37:21;;;;;;;;;;;10.90;99.90;;;;;;5096065;28;19931;-80
2023/03/31 08:39:46;;;;;;;;;;;10.90;99.90;;;;;;5081471;28;19924;-79
2023/03/31 08:42:12;;;;;;;;;;;10.90;99.90;;;;;;5093302;28;19932;-80
2023/03/31 08:44:53;;;;;;;;;;;10.90;99.90;;;;;;5092932;28;19924;-79
2023/03/31 08:47:21;;;;;;;;;;;10.90;99.90;;;;;;5074332;28;19924;-79
2023/03/31 08:49:49;;;;;;;;;;;10.90;99.90;;;;;;5090745;28;20418;-79
2023/03/31 08:52:18;;;;;;;;;;;10.90;99.90;;;;;;5082036;28;19931;-79
2023/03/31 08:54:46;;;;;;;;;;;10.90;99.90;;;;;;5081951;28;19924;-79
2023/03/31 08:57:15;;;;;;;;;;;11.00;99.90;;;;;;5092487;28;19935;-79
2023/03/31 08:59:43;;;;;;;;;;;11.10;99.90;;;;;;5122625;27;21496;-78
2023/03/31 09:02:12;;;;;;;;;;;11.10;99.90;;;;;;5088278;28;19984;-79
2023/03/31 09:04:50;;;;;;;;;;;11.20;99.90;;;;;;5073454;28;20432;-79
2023/03/31 09:07:25;;;;;;;;;;;11.20;99.90;;;;;;5099775;28;20073;-79
2023/03/31 09:09:50;;;;;;;;;;;11.20;99.90;;;;;;5091621;28;19924;-79
2023/03/31 09:12:24;;;;;;;;;;;11.10;99.90;;;;;;5077742;28;19954;-79
2023/03/31 09:15:00;;;;;;;;;;;11.10;99.90;;;;;;5073504;28;19970;-79
2023/03/31 09:17:27;;;;;;;;;;;11.10;99.90;;;;;;5069303;28;19947;-79
2023/03/31 09:19:52;;;;;;;;;;;11.20;99.90;;;;;;5078202;28;20403;-79
2023/03/31 09:22:24;;;;;;;;;;;11.30;99.90;;;;;;5064521;28;19928;-79
2023/03/31 09:24:53;;;;;;;;;;;11.30;99.90;;;;;;5096529;28;19932;-78
2023/03/31 09:27:19;;;;;;;;;;;11.30;99.90;;;;;;5095884;28;19935;-75
2023/03/31 09:29:45;;;;;;;;;;;11.30;99.90;;;;;;5111666;28;19924;-77
2023/03/31 09:32:10;;;;;;;;;;;11.30;99.90;;;;;;5062173;28;19970;-77
2023/03/31 09:34:36;;;;;;;;;;;11.20;99.90;;;;;;5083643;28;19999;-78
2023/03/31 09:37:02;;;;;;;;;;;11.20;99.90;;;;;;5121061;27;20049;-77
2023/03/31 09:39:27;;;;;;;;;;;11.30;99.90;;;;;;5089115;28;20524;-77
2023/03/31 09:41:54;;;;;;;;;;;11.30;99.90;;;;;;5088404;28;19929;-78
2023/03/31 09:44:26;;;;;;;;;;;11.30;99.90;;;;;;5072174;28;20662;-77
2023/03/31 09:46:52;;;;;;;;;;;11.30;99.90;;;;;;5095714;28;19960;-77
2023/03/31 09:49:19;;;;;;;;;;;11.40;99.90;;;;;;5097013;28;20478;-77
2023/03/31 09:51:47;;;;;;;;;;;11.40;99.90;;;;;;5123911;27;20390;-77
2023/03/31 09:54:32;;;;;;;;;;;11.50;99.90;;;;;;5093298;28;19980;-78
2023/03/31 09:56:57;;;;;;;;;;;11.50;99.90;;;;;;5089575;28;20416;-78
2023/03/31 09:59:31;;;;;;;;;;;11.60;99.90;;;;;;5090824;28;19925;-78
2023/03/31 10:01:58;;;;;;;;;;;11.70;99.90;;;;;;5094799;28;19928;-79
2023/03/31 10:04:34;;;;;;;;;;;11.80;99.90;;;;;;5068389;28;19935;-78
2023/03/31 10:07:00;;;;;;;;;;;11.90;99.90;;;;;;5077341;28;20539;-79
2023/03/31 10:09:29;;;;;;;;;;;12.00;99.90;;;;;;5122821;27;19932;-79
2023/03/31 10:12:05;;;;;;;;;;;12.00;99.90;;;;;;5114779;27;19943;-79
2023/03/31 10:14:39;;;;;;;;;;;12.10;99.90;;;;;;5090113;28;19924;-79
2023/03/31 10:17:06;;;;;;;;;;;12.10;99.90;;;;;;5077354;28;20531;-81
2023/03/31 10:19:36;;;;;;;;;;;12.10;99.90;;;;;;5086591;28;19972;-78
2023/03/31 10:22:02;;;;;;;;;;;12.10;99.90;;;;;;5091306;28;19924;-79
2023/03/31 10:24:57;;;;;;;;;;;12.10;99.90;;;;;;5076067;28;19942;-79
2023/03/31 10:27:24;;;;;;;;;;;12.20;99.90;;;;;;5066526;28;19928;-79
2023/03/31 10:29:51;;;;;;;;;;;12.20;99.90;;;;;;5073777;28;19935;-78
2023/03/31 10:32:21;;;;;;;;;;;12.30;99.90;;;;;;5071982;28;19924;-77
2023/03/31 10:34:47;;;;;;;;;;;12.20;99.90;;;;;;5068745;28;19925;-77
2023/03/31 10:37:17;;;;;;;;;;;12.20;99.90;;;;;;5093208;28;19930;-77
2023/03/31 10:39:45;;;;;;;;;;;12.20;99.90;;;;;;5068716;28;19935;-78
2023/03/31 10:42:17;;;;;;;;;;;12.10;99.90;;;;;;5117698;27;19931;-77
2023/03/31 10:44:43;;;;;;;;;;;12.00;99.90;;;;;;5082442;28;19932;-77
2023/03/31 10:47:12;;;;;;;;;;;12.00;99.90;;;;;;5090324;28;19924;-77
2023/03/31 10:49:38;;;;;;;;;;;12.00;99.90;;;;;;5091149;28;19935;-77
2023/03/31 10:52:13;;;;;;;;;;;12.00;99.90;;;;;;5074823;28;19924;-77
2023/03/31 10:54:44;;;;;;;;;;;12.00;99.90;;;;;;5088253;28;19935;-78
2023/03/31 10:57:10;;;;;;;;;;;12.00;99.90;;;;;;5116635;27;20491;-78
2023/03/31 10:59:57;;;;;;;;;;;12.00;99.90;;;;;;5087282;28;20450;-78
2023/03/31 11:02:41;;;;;;;;;;;12.10;99.90;;;;;;5088510;28;19989;-78
2023/03/31 11:05:26;;;;;;;;;;;12.10;99.90;;;;;;5073560;28;19980;-77
2023/03/31 11:07:55;;;;;;;;;;;12.10;99.90;;;;;;5090030;28;19927;-77
2023/03/31 11:10:39;;;;;;;;;;;12.10;99.90;;;;;;5073924;27;19935;-77
2023/03/31 11:13:19;;;;;;;;;;;12.10;99.90;;;;;;5124123;27;20280;-77
2023/03/31 11:15:44;;;;;;;;;;;12.10;99.90;;;;;;5093903;28;20355;-78
2023/03/31 11:18:15;;;;;;;;;;;12.10;99.90;;;;;;5070196;28;19976;-78
2023/03/31 11:20:47;;;;;;;;;;;12.20;99.90;;;;;;5098346;28;19970;-78
2023/03/31 11:23:23;;;;;;;;;;;12.20;99.90;;;;;;5090986;27;19927;-77
2023/03/31 11:25:49;;;;;;;;;;;12.30;99.90;;;;;;5071788;28;19939;-78
2023/03/31 11:28:29;;;;;;;;;;;12.30;99.90;;;;;;5077716;28;19928;-78
2023/03/31 11:31:05;;;;;;;;;;;12.50;99.90;;;;;;5100187;28;19923;-78
2023/03/31 11:33:50;;;;;;;;;;;12.60;99.90;;;;;;5089056;28;19945;-79
2023/03/31 11:36:22;;;;;;;;;;;12.80;99.90;;;;;;5090303;28;19931;-78
2023/03/31 11:38:53;;;;;;;;;;;12.90;99.90;;;;;;5076292;28;19931;-78
2023/03/31 11:41:23;;;;;;;;;;;12.90;99.90;;;;;;5077344;28;20337;-78
2023/03/31 11:43:53;;;;;;;;;;;13.00;99.90;;;;;;5077457;28;19928;-78
2023/03/31 11:46:22;;;;;;;;;;;13.00;99.90;;;;;;5083707;28;19931;-78
2023/03/31 11:48:58;;;;;;;;;;;13.00;99.90;;;;;;5102823;28;19927;-77
2023/03/31 11:51:30;;;;;;;;;;;13.00;99.90;;;;;;5098731;27;19928;-77
2023/03/31 11:53:57;;;;;;;;;;;13.00;99.90;;;;;;5093080;27;20015;-78
2023/03/31 11:56:26;;;;;;;;;;;13.00;99.90;;;;;;5080092;28;19931;-77
2023/03/31 11:58:55;;;;;;;;;;;13.00;99.90;;;;;;5101349;28;19973;-77
2023/03/31 12:01:20;;;;;;;;;;;13.10;99.90;;;;;;5078984;27;20080;-77
2023/03/31 12:04:05;;;;;;;;;;;13.30;99.90;;;;;;5098714;28;19942;-77
2023/03/31 12:06:33;;;;;;;;;;;13.50;99.90;;;;;;5106407;28;19924;-77
2023/03/31 12:09:18;;;;;;;;;;;13.80;99.90;;;;;;5115397;28;19935;-77
2023/03/31 12:11:57;;;;;;;;;;;13.90;99.90;;;;;;5104887;28;19954;-77
2023/03/31 12:14:30;;;;;;;;;;;14.10;99.90;;;;;;5085007;28;19974;-77
2023/03/31 12:17:17;;;;;;;;;;;14.20;99.90;;;;;;5089334;28;19928;-77
2023/03/31 12:19:45;;;;;;;;;;;14.20;99.90;;;;;;5081113;28;20251;-78
2023/03/31 12:22:17;;;;;;;;;;;14.10;99.90;;;;;;5076131;28;20314;-77
2023/03/31 12:24:45;;;;;;;;;;;14.10;99.90;;;;;;5082158;28;19923;-77
2023/03/31 12:27:20;;;;;;;;;;;14.00;99.90;;;;;;5085797;28;19959;-77
2023/03/31 12:30:00;;;;;;;;;;;14.00;99.90;;;;;;5087469;28;19949;-77
2023/03/31 12:32:29;;;;;;;;;;;13.90;99.90;;;;;;5105333;27;20293;-78
2023/03/31 12:34:59;;;;;;;;;;;13.70;99.90;;;;;;5088223;28;19963;-76
2023/03/31 12:37:27;;;;;;;;;;;13.50;99.90;;;;;;5097226;28;19932;-76
2023/03/31 12:40:06;;;;;;;;;;;13.40;99.90;;;;;;5090678;28;19924;-76
2023/03/31 12:42:51;;;;;;;;;;;13.40;99.90;;;;;;5128030;27;19945;-77
2023/03/31 12:45:17;;;;;;;;;;;13.30;99.90;;;;;;5102351;27;19928;-76
2023/03/31 12:47:54;;;;;;;;;;;13.30;99.90;;;;;;5099561;28;19968;-76
2023/03/31 12:50:35;;;;;;;;;;;13.20;99.90;;;;;;5073589;28;20290;-75
2023/03/31 12:53:26;;;;;;;;;;;13.10;99.90;;;;;;5088980;28;19952;-76
2023/03/31 12:55:59;;;;;;;;;;;13.00;99.90;;;;;;5083156;27;19923;-76
2023/03/31 12:58:33;;;;;;;;;;;13.00;99.90;;;;;;5113823;28;19955;-77
2023/03/31 13:01:19;;;;;;;;;;;13.10;99.90;;;;;;5115587;28;19955;-77
2023/03/31 13:03:47;;;;;;;;;;;13.20;99.90;;;;;;5121973;28;19977;-77
2023/03/31 13:06:28;;;;;;;;;;;13.10;99.90;;;;;;5102981;28;19935;-76
2023/03/31 13:08:54;;;;;;;;;;;13.10;99.90;;;;;;5104156;28;19923;-76
2023/03/31 13:11:32;;;;;;;;;;;13.00;99.90;;;;;;5103431;27;19923;-76
2023/03/31 13:13:59;;;;;;;;;;;13.00;99.90;;;;;;5101565;28;19967;-77
2023/03/31 13:16:25;;;;;;;;;;;13.00;99.90;;;;;;5093855;27;19963;-76
2023/03/31 13:18:52;;;;;;;;;;;12.90;99.90;;;;;;5098800;27;19934;-77
2023/03/31 13:21:17;;;;;;;;;;;13.00;99.90;;;;;;5097711;28;19930;-76
2023/03/31 13:23:45;;;;;;;;;;;13.00;99.90;;;;;;5095724;27;20032;-76
2023/03/31 13:26:29;;;;;;;;;;;13.10;99.90;;;;;;5106770;27;19931;-75
2023/03/31 13:29:18;;;;;;;;;;;13.00;99.90;;;;;;5101244;27;19923;-74
2023/03/31 13:31:59;;;;;;;;;;;12.90;99.90;;;;;;5116058;27;19928;-74
2023/03/31 13:34:28;;;;;;;;;;;12.70;99.90;;;;;;5091041;28;19979;-75
2023/03/31 13:36:53;;;;;;;;;;;12.70;99.90;;;;;;5089067;27;19944;-75
2023/03/31 13:39:38;;;;;;;;;;;12.80;99.90;;;;;;5089501;28;19931;-75
2023/03/31 13:42:22;;;;;;;;;;;12.80;99.90;;;;;;5089014;28;20050;-76
2023/03/31 13:44:54;;;;;;;;;;;12.80;99.90;;;;;;5126516;27;19924;-75
2023/03/31 13:47:26;;;;;;;;;;;12.90;99.90;;;;;;5094904;27;20018;-76
2023/03/31 13:49:54;;;;;;;;;;;12.90;99.90;;;;;;5093034;27;19924;-76
2023/03/31 13:52:35;;;;;;;;;;;12.80;99.90;;;;;;5079178;28;19935;-77
2023/03/31 13:55:16;;;;;;;;;;;12.70;99.90;;;;;;5110535;27;19923;-77
2023/03/31 13:57:51;;;;;;;;;;;12.70;99.90;;;;;;5086801;28;19928;-77
2023/03/31 14:00:35;;;;;;;;;;;12.70;99.90;;;;;;5125269;27;19928;-77
2023/03/31 14:03:12;;;;;;;;;;;12.70;99.90;;;;;;5080804;28;20366;-78
2023/03/31 14:05:42;;;;;;;;;;;12.70;99.90;;;;;;5120732;28;20325;-77
2023/03/31 14:08:13;;;;;;;;;;;12.80;99.90;;;;;;5094214;28;19969;-78
2023/03/31 14:10:41;;;;;;;;;;;12.80;99.90;;;;;;5090485;27;19923;-78
2023/03/31 14:13:08;;;;;;;;;;;12.70;99.90;;;;;;5083719;28;20395;-77
2023/03/31 14:15:36;;;;;;;;;;;12.70;99.90;;;;;;5074640;28;19950;-78
2023/03/31 14:18:02;;;;;;;;;;;12.70;99.90;;;;;;5126827;27;19931;-77
2023/03/31 14:20:34;;;;;;;;;;;12.60;99.90;;;;;;5093968;27;19924;-75
2023/03/31 14:23:05;;;;;;;;;;;12.60;99.90;;;;;;5091348;28;19927;-75
2023/03/31 14:25:49;;;;;;;;;;;12.50;99.90;;;;;;5092556;28;19928;-75
2023/03/31 14:28:22;;;;;;;;;;;12.40;99.90;;;;;;5094768;28;19947;-76
2023/03/31 14:30:51;;;;;;;;;;;12.40;99.90;;;;;;5107724;27;20424;-75
2023/03/31 14:33:20;;;;;;;;;;;12.40;99.90;;;;;;5091827;27;20275;-76
2023/03/31 14:35:54;;;;;;;;;;;12.40;99.90;;;;;;5090015;28;19986;-76
2023/03/31 14:38:21;;;;;;;;;;;12.40;99.90;;;;;;5076230;28;19935;-76